DW3296 Weather Reports


Display with metric or nautical units.
time (UTC)temp
F
wind
direction
speed
MPH
gust
MPH
rain 1hr
in
rain 24hr
in
rain mn
in
humidity
%
barometer
mb
20190326005834 56 209 0.0 7.0 0.07 0.30 0.30 93 1017.4
20190326005334 56 208 0.0 7.0 0.06 0.29 0.29 93 1017.3
20190326004819 56 217 0.0 2.0 0.06 0.28 0.28 93 1017.2
20190326004319 56 219 0.0 4.0 0.06 0.28 0.28 93 1017.2
20190326003820 56 219 1.0 4.0 0.07 0.28 0.28 92 1017.2
20190326003320 56 191 1.0 4.0 0.09 0.27 0.27 93 1017.2
20190326002821 56 215 0.0 2.0 0.11 0.27 0.27 93 1017.3
20190326002321 56 219 0.0 4.0 0.11 0.26 0.26 93 1017.5
20190326001825 56 212 1.0 5.0 0.11 0.26 0.26 92 1017.5
20190326001326 56 212 0.0 5.0 0.11 0.25 0.25 92 1017.3
20190326000827 56 213 0.0 3.0 0.11 0.25 0.25 92 1017.2
20190326000328 56 212 0.0 3.0 0.11 0.24 0.24 92 1017.3
20190325235823 56 210 0.0 3.0 0.10 0.23 0.23 92 1017.5
20190325235324 56 209 1.0 6.0 0.11 0.23 0.23 92 1017.5
20190325234824 56 171 0.0 12.0 0.11 0.22 0.22 91 1017.5
20190325234328 56 195 5.0 14.0 0.12 0.22 0.22 91 1017.5
20190325233827 56 205 5.0 8.0 0.12 0.21 0.21 91 1017.4
20190325233328 56 217 1.0 6.0 0.11 0.19 0.19 92 1017.6
20190325232830 56 209 2.0 4.0 0.10 0.17 0.17 91 1017.6
20190325232331 56 205 0.0 4.0 0.10 0.15 0.15 91 1017.6
20190325231831 56 205 0.0 5.0 0.12 0.15 0.15 91 1017.6
20190325231331 56 208 1.0 5.0 0.12 0.14 0.14 91 1017.6
20190325230831 56 212 0.0 4.0 0.12 0.14 0.14 91 1017.5
20190325230332 56 195 0.0 2.0 0.11 0.13 0.13 91 1017.6
20190325225825 56 194 0.0 2.0 0.11 0.13 0.13 90 1017.6
20190325225325 57 235 0.0 2.0 0.11 0.12 0.12 90 1017.7
20190325224825 57 237 0.0 2.0 0.11 0.11 0.11 90 1017.8
20190325224326 57 242 0.0 1.0 0.10 0.10 0.10 90 1017.8
20190325223830 57 232 0.0 9.0 0.09 0.09 0.09 89 1017.8
20190325223331 57 244 6.0 9.0 0.08 0.08 0.08 88 1017.9
20190325222831 57 158 2.0 5.0 0.07 0.07 0.07 87 1017.9
20190325222330 57 273 0.0 5.0 0.05 0.05 0.05 87 1017.9
20190325221830 57 209 1.0 4.0 0.03 0.03 0.03 85 1017.8
20190325221330 57 216 1.0 4.0 0.02 0.02 0.02 83 1017.7
20190325220830 58 229 1.0 4.0 0.02 0.02 0.02 82 1017.8
20190325220331 58 231 1.0 5.0 0.02 0.02 0.02 81 1017.9
20190325215824 59 217 3.0 7.0 0.02 0.02 0.02 79 1017.9
20190325215324 60 236 1.0 7.0 0.01 0.01 0.01 76 1017.9
20190325214826 61 225 3.0 9.0 0.00 0.00 0.00 71 1017.9
20190325214328 61 197 4.0 9.0 0.00 0.00 0.00 67 1017.9
20190325213828 61 211 4.0 16.0 0.00 0.00 0.00 67 1017.7
20190325213333 61 224 4.0 16.0 0.00 0.00 0.00 66 1017.6
20190325212834 61 197 1.0 13.0 0.00 0.00 0.00 68 1017.8
20190325212335 61 153 3.0 13.0 0.00 0.00 0.00 67 1017.8
20190325211836 61 169 4.0 18.0 0.00 0.00 0.00 68 1017.8
20190325211318 61 196 3.0 18.0 0.00 0.00 0.00 69 1017.8
20190325210820 62 202 5.0 8.0 0.00 0.00 0.00 65 1017.9
20190325210322 62 138 0.0 15.0 0.00 0.00 0.00 65 1017.9
20190325205835 62 243 5.0 15.0 0.00 0.00 0.00 64 1017.9
20190325205335 62 253 4.0 13.0 0.00 0.00 0.00 62 1017.9
20190325204836 62 190 3.0 10.0 0.00 0.00 0.00 63 1018.0
20190325204334 61 165 3.0 16.0 0.00 0.00 0.00 64 1018.0
20190325203834 62 213 2.0 16.0 0.00 0.00 0.00 63 1018.1
20190325203318 63 360 7.0 16.0 0.00 0.00 0.00 60 1018.0
20190325202819 63 169 4.0 14.0 0.00 0.00 0.00 60 1017.8
20190325202320 62 198 3.0 14.0 0.00 0.00 0.00 60 1017.9
20190325201820 62 126 2.0 12.0 0.00 0.00 0.00 62 1017.8
20190325201320 62 223 4.0 12.0 0.00 0.00 0.00 60 1017.9
20190325200822 62 143 5.0 12.0 0.00 0.00 0.00 58 1018.0
20190325200322 62 196 6.0 12.0 0.00 0.00 0.00 57 1017.9
20190325195834 62 61 1.0 18.0 0.00 0.00 0.00 57 1017.9
20190325195336 62 175 5.0 18.0 0.00 0.00 0.00 56 1017.9
20190325194836 62 228 4.0 12.0 0.00 0.00 0.00 57 1017.8
20190325194336 62 196 3.0 12.0 0.00 0.00 0.00 56 1017.8
20190325193837 62 184 3.0 13.0 0.00 0.00 0.00 55 1017.8
20190325193317 62 67 6.0 15.0 0.00 0.00 0.00 55 1017.8
20190325192823 62 210 3.0 15.0 0.00 0.00 0.00 55 1017.9
20190325192324 62 198 3.0 12.0 0.00 0.00 0.00 54 1018.0
20190325191826 62 194 4.0 12.0 0.00 0.00 0.00 53 1018.0
20190325191327 62 191 4.0 13.0 0.00 0.00 0.00 53 1018.0
20190325190828 62 163 1.0 14.0 0.00 0.00 0.00 52 1018.1
20190325190329 62 193 7.0 14.0 0.00 0.00 0.00 51 1018.2
20190325185820 62 65 2.0 12.0 0.00 0.00 0.00 53 1018.1
20190325185321 61 201 3.0 12.0 0.00 0.00 0.00 53 1018.1
20190325184822 62 215 6.0 12.0 0.00 0.00 0.00 52 1017.8
20190325184325 62 116 6.0 14.0 0.00 0.00 0.00 51 1018.0
20190325183826 61 144 4.0 10.0 0.00 0.00 0.00 51 1018.2
20190325183325 61 189 3.0 16.0 0.00 0.00 0.00 50 1018.3
20190325182828 61 219 8.0 16.0 0.00 0.00 0.00 50 1018.4
20190325182333 61 114 4.0 13.0 0.00 0.00 0.00 50 1018.4
20190325181834 61 150 3.0 8.0 0.00 0.00 0.00 50 1018.2
20190325181335 60 144 3.0 10.0 0.00 0.00 0.00 49 1018.1
20190325180835 60 181 5.0 10.0 0.00 0.00 0.00 50 1018.2
20190325180335 60 153 3.0 9.0 0.00 0.00 0.00 50 1018.1
20190325175827 60 163 4.0 9.0 0.00 0.00 0.00 51 1018.2
20190325175328 60 227 3.0 9.0 0.00 0.00 0.00 52 1018.3
20190325174826 59 74 2.0 11.0 0.00 0.00 0.00 54 1018.3
20190325174326 59 165 4.0 11.0 0.00 0.00 0.00 52 1018.3
20190325173822 59 158 1.0 8.0 0.00 0.00 0.00 54 1018.4
20190325173334 58 130 2.0 9.0 0.00 0.00 0.00 54 1018.6
20190325172832 58 200 3.0 9.0 0.00 0.00 0.00 54 1018.7
20190325172332 58 161 3.0 11.0 0.00 0.00 0.00 55 1018.7
20190325171831 57 145 5.0 11.0 0.00 0.00 0.00 55 1018.6
20190325171336 57 188 3.0 12.0 0.00 0.00 0.00 56 1018.7
20190325170837 57 190 2.0 12.0 0.00 0.00 0.00 57 1018.6
20190325170334 57 225 1.0 7.0 0.00 0.00 0.00 58 1018.6
20190325165823 56 207 2.0 13.0 0.00 0.00 0.00 59 1018.6
20190325165325 56 150 2.0 13.0 0.00 0.00 0.00 60 1018.5
20190325164842 56 56 2.0 6.0 0.00 0.00 0.00 61 1018.5
20190325163330 55 209 3.0 6.0 0.00 0.00 0.00 63 1018.6
20190325162831 55 135 2.0 10.0 0.00 0.00 0.00 63 1018.5
20190325162332 55 202 4.0 10.0 0.00 0.00 0.00 64 1018.5
20190325161834 55 217 6.0 9.0 0.00 0.00 0.00 64 1018.4
20190325161335 55 202 5.0 10.0 0.00 0.00 0.00 65 1018.3
20190325160837 54 166 2.0 10.0 0.00 0.00 0.00 66 1018.2
20190325160318 54 198 3.0 7.0 0.00 0.00 0.00 67 1018.1
20190325155829 54 202 4.0 7.0 0.00 0.00 0.00 68 1018.0
20190325155334 54 208 1.0 4.0 0.00 0.00 0.00 69 1018.1
20190325154836 54 209 1.0 4.0 0.00 0.00 0.00 70 1018.1
20190325154317 53 211 2.0 4.0 0.00 0.00 0.00 71 1017.9
20190325153818 53 206 0.0 3.0 0.00 0.00 0.00 72 1017.9
20190325153320 53 206 0.0 4.0 0.00 0.00 0.00 72 1017.6
20190325152820 53 206 2.0 5.0 0.00 0.00 0.00 72 1017.5
20190325152320 53 206 2.0 5.0 0.00 0.00 0.00 71 1017.4
20190325151820 52 207 1.0 4.0 0.00 0.00 0.00 72 1017.3
20190325151321 52 208 1.0 4.0 0.00 0.00 0.00 73 1017.3
20190325150822 52 203 1.0 3.0 0.00 0.00 0.00 73 1017.3
20190325150322 52 203 0.0 3.0 0.00 0.00 0.00 73 1017.2
20190325145834 51 205 0.0 2.0 0.00 0.00 0.00 74 1017.0
20190325145319 51 206 1.0 6.0 0.00 0.00 0.00 73 1017.1
20190325144820 51 207 2.0 4.0 0.00 0.00 0.00 73 1017.0
20190325144320 51 206 2.0 5.0 0.00 0.00 0.00 73 1017.1
20190325143821 51 208 1.0 4.0 0.00 0.00 0.00 72 1017.3
20190325143320 52 210 2.0 3.0 0.00 0.00 0.00 73 1017.4
20190325142821 52 211 1.0 4.0 0.00 0.00 0.00 72 1017.4
20190325142322 52 209 0.0 4.0 0.00 0.00 0.00 72 1017.3
20190325141824 52 220 0.0 8.0 0.00 0.00 0.00 71 1017.4
20190325141325 52 199 1.0 9.0 0.00 0.00 0.00 71 1017.4
20190325140827 52 202 4.0 9.0 0.00 0.00 0.00 72 1017.3
20190325140327 51 206 6.0 10.0 0.00 0.00 0.00 74 1017.2
20190325135820 50 217 4.0 11.0 0.00 0.00 0.00 79 1017.0
20190325135322 47 209 3.0 11.0 0.00 0.00 0.00 85 1017.0
20190325134827 45 203 3.0 8.0 0.00 0.00 0.00 92 1017.0
20190325134328 45 207 0.0 0.0 0.00 0.00 0.00 92 1016.9
20190325133829 45 207 0.0 0.0 0.00 0.00 0.00 91 1016.9
20190325133328 45 207 0.0 0.0 0.00 0.00 0.00 91 1016.9
20190325132829 45 207 0.0 0.0 0.00 0.00 0.00 91 1016.8
20190325132329 45 207 0.0 0.0 0.00 0.00 0.00 91 1016.8
20190325131830 45 207 0.0 0.0 0.00 0.00 0.00 91 1016.8
20190325131332 45 207 0.0 0.0 0.00 0.00 0.00 91 1016.7
20190325130833 45 207 0.0 0.0 0.00 0.00 0.00 91 1016.7
20190325130336 45 207 0.0 0.0 0.00 0.00 0.00 91 1016.7
20190325125828 45 207 0.0 0.0 0.00 0.00 0.00 91 1016.7
20190325125329 45 207 0.0 0.0 0.00 0.00 0.00 91 1016.7
20190325124830 45 207 0.0 0.0 0.00 0.00 0.00 91 1016.8
20190325124335 45 207 0.0 0.0 0.00 0.00 0.00 91 1016.7
20190325123836 45 207 0.0 0.0 0.00 0.00 0.00 91 1016.7
20190325123318 45 207 0.0 0.0 0.00 0.00 0.00 91 1016.7
20190325122819 45 207 0.0 0.0 0.00 0.00 0.00 91 1016.7
20190325122319 45 207 0.0 0.0 0.00 0.00 0.00 91 1016.7
20190325121820 45 207 0.0 0.0 0.00 0.00 0.00 90 1016.8
20190325121321 45 207 0.0 0.0 0.00 0.00 0.00 90 1016.9
20190325120821 45 207 0.0 0.0 0.00 0.00 0.00 90 1016.9
20190325120323 45 207 0.0 0.0 0.00 0.00 0.00 90 1017.0
20190325115835 45 207 0.0 0.0 0.00 0.00 0.00 89 1017.0
20190325115337 45 207 0.0 0.0 0.00 0.00 0.00 89 1017.0
20190325114818 45 207 0.0 0.0 0.00 0.00 0.00 89 1017.1
20190325114323 45 207 0.0 0.0 0.00 0.00 0.00 88 1017.2
20190325113826 45 207 0.0 0.0 0.00 0.00 0.00 88 1017.2
20190325113326 45 207 0.0 0.0 0.00 0.00 0.00 88 1017.2
20190325112828 45 207 0.0 0.0 0.00 0.00 0.00 88 1017.2
20190325112330 46 207 0.0 0.0 0.00 0.00 0.00 87 1017.3
20190325111830 46 207 0.0 0.0 0.00 0.00 0.00 87 1017.3
20190325111331 46 207 0.0 0.0 0.00 0.00 0.00 87 1017.5
20190325110831 46 207 0.0 0.0 0.00 0.00 0.00 86 1017.6
20190325110331 46 207 0.0 0.0 0.00 0.00 0.00 86 1017.6
20190325105822 47 207 0.0 0.0 0.00 0.00 0.00 86 1017.7
20190325105320 47 207 0.0 0.0 0.00 0.00 0.00 85 1017.7
20190325104822 47 207 0.0 0.0 0.00 0.00 0.00 85 1017.7
20190325104324 47 208 0.0 0.0 0.00 0.00 0.00 85 1017.8
20190325103830 47 207 0.0 0.0 0.00 0.00 0.00 84 1017.9
20190325103331 48 207 0.0 0.0 0.00 0.00 0.00 84 1017.9
20190325102832 48 207 0.0 0.0 0.00 0.00 0.00 84 1017.9
20190325102331 48 207 0.0 0.0 0.00 0.00 0.00 83 1018.0
20190325101833 48 207 0.0 0.0 0.00 0.00 0.00 83 1017.9
20190325101333 49 207 0.0 0.0 0.00 0.00 0.00 83 1018.0
20190325100836 49 207 0.0 0.0 0.00 0.00 0.00 83 1018.1
20190325100336 49 207 0.0 0.0 0.00 0.00 0.00 82 1018.1
20190325095829 50 207 0.0 0.0 0.00 0.00 0.00 82 1018.1
20190325095331 50 207 0.0 0.0 0.00 0.00 0.00 81 1018.2
20190325094831 50 207 0.0 0.0 0.00 0.00 0.00 81 1018.4
20190325094332 50 207 0.0 0.0 0.00 0.00 0.00 81 1018.6
20190325093834 50 207 0.0 0.0 0.00 0.00 0.00 81 1018.8
20190325093319 50 207 0.0 0.0 0.00 0.00 0.00 80 1018.7
20190325092821 50 207 0.0 0.0 0.00 0.00 0.00 80 1018.7
20190325092321 50 208 0.0 0.0 0.00 0.00 0.00 81 1018.8
20190325091822 51 208 0.0 0.0 0.00 0.00 0.00 80 1018.9
20190325091322 51 207 0.0 0.0 0.00 0.00 0.00 79 1018.9
20190325090823 51 207 0.0 0.0 0.00 0.00 0.00 79 1019.0
20190325090325 51 207 0.0 0.0 0.00 0.00 0.00 79 1019.0
20190325085819 51 207 0.0 0.0 0.00 0.00 0.00 78 1019.0
20190325085319 51 207 0.0 0.0 0.00 0.00 0.00 78 1019.0
20190325084822 51 207 0.0 0.0 0.00 0.00 0.00 77 1019.1
20190325084322 51 207 0.0 0.0 0.00 0.00 0.00 76 1019.1
20190325083825 51 207 0.0 0.0 0.00 0.00 0.00 75 1019.2
20190325083331 51 207 0.0 0.0 0.00 0.00 0.00 75 1019.3
20190325082830 52 207 0.0 0.0 0.00 0.00 0.00 74 1019.3
20190325082333 52 207 0.0 0.0 0.00 0.00 0.00 73 1019.4
20190325081834 52 207 0.0 0.0 0.00 0.00 0.00 76 1019.3
20190325081336 52 207 0.0 0.0 0.00 0.00 0.00 73 1019.3
20190325080835 52 207 0.0 1.0 0.00 0.00 0.00 73 1019.3
20190325080336 53 207 0.0 2.0 0.00 0.00 0.00 72 1019.3
20190325075828 53 207 0.0 2.0 0.00 0.00 0.00 70 1019.4
20190325075329 53 207 0.0 1.0 0.00 0.00 0.00 70 1019.4
20190325074830 53 207 0.0 4.0 0.00 0.00 0.00 70 1019.5
20190325074329 53 207 0.0 4.0 0.00 0.00 0.00 71 1019.6
20190325073828 52 207 1.0 5.0 0.00 0.00 0.00 71 1019.7
20190325073329 51 207 2.0 5.0 0.00 0.00 0.00 72 1019.9
20190325072833 51 209 0.0 2.0 0.00 0.00 0.00 75 1019.9
20190325072335 51 209 0.0 2.0 0.00 0.00 0.00 74 1019.9
20190325071837 51 209 0.0 0.0 0.00 0.00 0.00 74 1019.9
20190325071318 51 209 0.0 0.0 0.00 0.00 0.00 74 1020.0
20190325070835 51 209 0.0 0.0 0.00 0.00 0.00 73 1019.9
20190325070327 51 209 0.0 0.0 0.00 0.00 0.00 72 1019.9
20190325065824 51 209 0.0 0.0 0.00 0.00 0.01 72 1019.9
20190325065321 51 209 0.0 0.0 0.00 0.00 0.01 73 1019.9
20190325064822 52 209 0.0 0.0 0.00 0.00 0.01 73 1019.8
20190325064323 52 209 0.0 0.0 0.00 0.00 0.01 72 1019.9
20190325063822 52 209 0.0 0.0 0.00 0.00 0.01 72 1019.9
20190325063325 52 209 0.0 0.0 0.00 0.00 0.01 71 1020.1
20190325062826 52 209 0.0 0.0 0.00 0.00 0.01 71 1020.2
20190325062327 52 209 0.0 0.0 0.00 0.00 0.01 72 1020.3
20190325061833 52 209 0.0 0.0 0.00 0.00 0.01 71 1020.3
20190325061334 53 209 0.0 1.0 0.00 0.00 0.01 72 1020.4
20190325060837 53 209 0.0 1.0 0.00 0.00 0.01 69 1020.4
20190325060337 53 209 0.0 2.0 0.00 0.00 0.01 69 1020.4
20190325055828 53 209 0.0 2.0 0.00 0.00 0.01 69 1020.4
20190325055328 53 209 0.0 2.0 0.00 0.00 0.01 68 1020.4
20190325054829 53 209 0.0 4.0 0.00 0.00 0.01 69 1020.5
20190325054331 53 209 1.0 4.0 0.00 0.00 0.01 68 1020.5
20190325053832 53 209 2.0 4.0 0.00 0.00 0.01 69 1020.5
20190325053332 52 209 1.0 3.0 0.00 0.00 0.01 70 1020.5
20190325052833 52 209 0.0 0.0 0.00 0.00 0.01 71 1020.5
20190325052335 52 209 0.0 0.0 0.00 0.00 0.01 74 1020.5
20190325051818 52 209 0.0 0.0 0.00 0.00 0.01 74 1020.5
20190325051319 52 208 0.0 0.0 0.00 0.00 0.01 74 1020.4
20190325050820 52 209 0.0 0.0 0.00 0.00 0.01 75 1020.4
20190325050322 52 209 0.0 0.0 0.00 0.00 0.01 73 1020.4
20190325045833 52 209 0.0 0.0 0.00 0.00 0.01 73 1020.4
20190325045335 53 209 0.0 0.0 0.00 0.00 0.01 73 1020.3
20190325044837 53 209 0.0 0.0 0.00 0.00 0.01 70 1020.2
20190325044337 53 209 0.0 1.0 0.00 0.00 0.01 69 1020.3
20190325043818 53 209 0.0 3.0 0.00 0.00 0.01 70 1020.4
20190325043320 53 209 1.0 3.0 0.00 0.00 0.01 69 1020.3
20190325042821 53 209 0.0 0.0 0.00 0.00 0.01 71 1020.2
20190325042320 53 209 0.0 0.0 0.00 0.00 0.01 71 1020.3
20190325041821 53 209 0.0 0.0 0.00 0.00 0.01 74 1020.3
20190325041327 53 209 0.0 0.0 0.00 0.00 0.01 72 1020.3
20190325040827 53 209 0.0 0.0 0.00 0.00 0.01 72 1020.4
20190325040328 53 209 0.0 0.0 0.00 0.00 0.01 71 1020.3
20190325035822 53 209 0.0 0.0 0.00 0.00 0.01 70 1020.2
20190325035324 53 209 0.0 0.0 0.00 0.00 0.01 71 1020.2
20190325034824 53 209 0.0 0.0 0.00 0.00 0.01 72 1020.2
20190325034325 54 209 0.0 0.0 0.00 0.00 0.01 72 1020.1
20190325033827 54 209 0.0 0.0 0.00 0.00 0.01 71 1020.0
20190325033328 54 209 0.0 0.0 0.00 0.00 0.01 71 1020.1
20190325032829 54 209 0.0 0.0 0.00 0.00 0.01 70 1020.1
20190325032329 55 209 0.0 0.0 0.00 0.00 0.01 69 1019.9
20190325031830 55 209 0.0 3.0 0.00 0.00 0.01 68 1019.9
20190325031331 55 209 0.0 4.0 0.00 0.00 0.01 68 1019.7
20190325030836 55 209 0.0 4.0 0.00 0.00 0.01 68 1019.7
20190325030318 55 209 2.0 4.0 0.00 0.00 0.01 69 1019.8
20190325025830 56 209 0.0 3.0 0.00 0.00 0.01 70 1019.7
20190325025331 56 209 1.0 4.0 0.00 0.00 0.01 69 1019.7
20190325024832 56 209 0.0 4.0 0.00 0.00 0.01 69 1019.7
20190325024331 57 207 1.0 4.0 0.00 0.00 0.01 69 1019.7
20190325023834 57 206 2.0 4.0 0.00 0.00 0.01 68 1019.8
20190325023335 57 207 2.0 7.0 0.00 0.00 0.01 69 1019.8
20190325022837 57 205 2.0 7.0 0.00 0.00 0.01 68 1019.9
20190325022337 58 207 3.0 7.0 0.00 0.00 0.01 68 1019.9
20190325021818 58 232 3.0 6.0 0.00 0.00 0.01 68 1019.9
20190325021318 58 276 2.0 6.0 0.00 0.00 0.01 68 1019.9
20190325020823 59 284 2.0 6.0 0.00 0.00 0.01 67 1019.9
20190325020325 59 296 1.0 4.0 0.00 0.00 0.01 67 1019.9
20190325015820 59 297 1.0 3.0 0.00 0.00 0.01 66 1019.9
20190325015320 60 297 0.0 3.0 0.00 0.00 0.01 65 1020.1
20190325014820 60 298 0.0 3.0 0.00 0.00 0.01 65 1020.1
20190325014320 60 298 1.0 4.0 0.00 0.00 0.01 64 1020.1
20190325013821 60 298 0.0 4.0 0.00 0.00 0.01 63 1020.1
20190325013322 61 298 2.0 4.0 0.00 0.00 0.01 63 1020.1
20190325012824 61 303 1.0 4.0 0.00 0.00 0.01 62 1020.0
20190325012325 61 303 0.0 4.0 0.00 0.00 0.01 61 1020.0
20190325011825 62 296 1.0 3.0 0.00 0.00 0.01 61 1020.0
20190325011328 62 297 1.0 2.0 0.00 0.00 0.01 60 1020.1
20190325010827 62 298 0.0 4.0 0.00 0.00 0.01 60 1020.2
20190325010332 63 298 1.0 4.0 0.00 0.00 0.01 59 1020.2